sensor_id;sensor_type;location;lat;lon;timestamp;pressure;altitude;pressure_sealevel;temperature;humidity
20394;BME280;10356;50.544;9.642;2023-04-27T00:00:26;98460.03;;;5.64;79.30
20394;BME280;10356;50.544;9.642;2023-04-27T00:02:52;98462.78;;;5.61;79.27
20394;BME280;10356;50.544;9.642;2023-04-27T00:05:19;98461.13;;;5.60;79.04
20394;BME280;10356;50.544;9.642;2023-04-27T00:07:45;98465.38;;;5.61;79.02
20394;BME280;10356;50.544;9.642;2023-04-27T00:10:12;98458.63;;;5.59;79.04
20394;BME280;10356;50.544;9.642;2023-04-27T00:12:38;98453.44;;;5.59;78.91
20394;BME280;10356;50.544;9.642;2023-04-27T00:15:07;98463.13;;;5.55;79.27
20394;BME280;10356;50.544;9.642;2023-04-27T00:17:35;98456.13;;;5.57;78.58
20394;BME280;10356;50.544;9.642;2023-04-27T00:20:01;98457.97;;;5.55;79.08
20394;BME280;10356;50.544;9.642;2023-04-27T00:22:29;98450.22;;;5.55;78.91
20394;BME280;10356;50.544;9.642;2023-04-27T00:24:55;98451.09;;;5.54;78.23
20394;BME280;10356;50.544;9.642;2023-04-27T00:27:22;98450.13;;;5.57;79.01
20394;BME280;10356;50.544;9.642;2023-04-27T00:29:48;98453.69;;;5.54;79.72
20394;BME280;10356;50.544;9.642;2023-04-27T00:32:15;98449.44;;;5.53;80.10
20394;BME280;10356;50.544;9.642;2023-04-27T00:34:43;98449.59;;;5.50;80.77
20394;BME280;10356;50.544;9.642;2023-04-27T00:37:09;98445.28;;;5.51;80.55
20394;BME280;10356;50.544;9.642;2023-04-27T00:39:36;98445.09;;;5.54;80.89
20394;BME280;10356;50.544;9.642;2023-04-27T00:42:03;98440.84;;;5.53;81.55
20394;BME280;10356;50.544;9.642;2023-04-27T00:44:30;98440.25;;;5.48;81.77
20394;BME280;10356;50.544;9.642;2023-04-27T00:46:57;98434.44;;;5.44;82.03
20394;BME280;10356;50.544;9.642;2023-04-27T00:49:25;98435.41;;;5.42;82.17
20394;BME280;10356;50.544;9.642;2023-04-27T00:51:53;98439.03;;;5.39;82.31
20394;BME280;10356;50.544;9.642;2023-04-27T00:54:21;98438.09;;;5.40;82.54
20394;BME280;10356;50.544;9.642;2023-04-27T00:56:48;98440.84;;;5.37;82.34
20394;BME280;10356;50.544;9.642;2023-04-27T00:59:15;98448.59;;;5.37;82.64
20394;BME280;10356;50.544;9.642;2023-04-27T01:01:42;98445.28;;;5.35;82.67
20394;BME280;10356;50.544;9.642;2023-04-27T01:04:08;98447.00;;;5.35;82.72
20394;BME280;10356;50.544;9.642;2023-04-27T01:06:35;98444.53;;;5.33;82.47
20394;BME280;10356;50.544;9.642;2023-04-27T01:09:03;98441.66;;;5.38;81.97
20394;BME280;10356;50.544;9.642;2023-04-27T01:11:31;98441.84;;;5.35;81.93
20394;BME280;10356;50.544;9.642;2023-04-27T01:14:02;98443.69;;;5.33;82.07
20394;BME280;10356;50.544;9.642;2023-04-27T01:16:29;98443.78;;;5.31;81.62
20394;BME280;10356;50.544;9.642;2023-04-27T01:18:55;98438.00;;;5.26;80.97
20394;BME280;10356;50.544;9.642;2023-04-27T01:21:22;98444.91;;;5.26;81.04
20394;BME280;10356;50.544;9.642;2023-04-27T01:23:50;98440.75;;;5.23;80.93
20394;BME280;10356;50.544;9.642;2023-04-27T01:26:16;98447.56;;;5.24;80.84
20394;BME280;10356;50.544;9.642;2023-04-27T01:28:43;98434.84;;;5.21;80.85
20394;BME280;10356;50.544;9.642;2023-04-27T01:31:10;98446.81;;;5.22;81.16
20394;BME280;10356;50.544;9.642;2023-04-27T01:33:36;98444.41;;;5.19;81.49
20394;BME280;10356;50.544;9.642;2023-04-27T01:36:03;98446.25;;;5.17;82.17
20394;BME280;10356;50.544;9.642;2023-04-27T01:38:31;98454.91;;;5.16;82.82
20394;BME280;10356;50.544;9.642;2023-04-27T01:40:59;98454.75;;;5.19;82.56
20394;BME280;10356;50.544;9.642;2023-04-27T01:43:27;98456.63;;;5.16;83.80
20394;BME280;10356;50.544;9.642;2023-04-27T01:45:53;98462.78;;;5.13;84.00
20394;BME280;10356;50.544;9.642;2023-04-27T01:48:20;98465.22;;;5.16;83.98
20394;BME280;10356;50.544;9.642;2023-04-27T01:50:46;98455.66;;;5.18;84.08
20394;BME280;10356;50.544;9.642;2023-04-27T01:53:13;98449.72;;;5.16;84.00
20394;BME280;10356;50.544;9.642;2023-04-27T01:55:39;98461.03;;;5.13;84.10
20394;BME280;10356;50.544;9.642;2023-04-27T01:58:07;98458.41;;;5.15;84.15
20394;BME280;10356;50.544;9.642;2023-04-27T02:00:33;98459.31;;;5.14;84.52
20394;BME280;10356;50.544;9.642;2023-04-27T02:03:00;98470.84;;;5.07;85.22
20394;BME280;10356;50.544;9.642;2023-04-27T02:05:26;98473.53;;;5.05;85.63
20394;BME280;10356;50.544;9.642;2023-04-27T02:07:53;98470.78;;;5.08;84.78
20394;BME280;10356;50.544;9.642;2023-04-27T02:10:19;98473.38;;;5.08;84.60
20394;BME280;10356;50.544;9.642;2023-04-27T02:12:46;98477.69;;;5.08;84.56
20394;BME280;10356;50.544;9.642;2023-04-27T02:15:14;98476.84;;;5.07;84.74
20394;BME280;10356;50.544;9.642;2023-04-27T02:17:41;98476.00;;;5.07;84.44
20394;BME280;10356;50.544;9.642;2023-04-27T02:20:09;98479.53;;;5.06;84.85
20394;BME280;10356;50.544;9.642;2023-04-27T02:22:39;98482.88;;;5.08;84.67
20394;BME280;10356;50.544;9.642;2023-04-27T02:25:07;98484.53;;;5.09;84.76
20394;BME280;10356;50.544;9.642;2023-04-27T02:27:36;98486.13;;;5.11;84.31
20394;BME280;10356;50.544;9.642;2023-04-27T02:30:03;98489.53;;;5.12;84.58
20394;BME280;10356;50.544;9.642;2023-04-27T02:32:31;98491.19;;;5.13;85.08
20394;BME280;10356;50.544;9.642;2023-04-27T02:34:58;98505.03;;;5.12;85.38
20394;BME280;10356;50.544;9.642;2023-04-27T02:37:25;98494.84;;;5.09;86.67
20394;BME280;10356;50.544;9.642;2023-04-27T02:39:51;98494.84;;;5.09;86.57
20394;BME280;10356;50.544;9.642;2023-04-27T02:42:18;98493.94;;;5.10;86.35
20394;BME280;10356;50.544;9.642;2023-04-27T02:44:45;98496.53;;;5.10;85.85
20394;BME280;10356;50.544;9.642;2023-04-27T02:47:11;98503.44;;;5.09;85.99
20394;BME280;10356;50.544;9.642;2023-04-27T02:49:39;98500.41;;;5.01;85.44
20394;BME280;10356;50.544;9.642;2023-04-27T02:52:06;98495.88;;;5.06;85.50
20394;BME280;10356;50.544;9.642;2023-04-27T02:54:33;98499.44;;;5.04;85.16
20394;BME280;10356;50.544;9.642;2023-04-27T02:57:00;98499.75;;;4.98;85.36
20394;BME280;10356;50.544;9.642;2023-04-27T02:59:26;98503.09;;;5.00;85.44
20394;BME280;10356;50.544;9.642;2023-04-27T03:01:53;98506.50;;;5.00;85.26
20394;BME280;10356;50.544;9.642;2023-04-27T03:04:19;98508.34;;;4.98;85.58
20394;BME280;10356;50.544;9.642;2023-04-27T03:06:47;98506.19;;;5.06;85.03
20394;BME280;10356;50.544;9.642;2023-04-27T03:09:13;98507.31;;;5.01;85.14
20394;BME280;10356;50.544;9.642;2023-04-27T03:11:40;98507.31;;;5.01;85.77
20394;BME280;10356;50.544;9.642;2023-04-27T03:14:06;98507.50;;;4.98;85.82
20394;BME280;10356;50.544;9.642;2023-04-27T03:16:33;98512.75;;;4.96;86.09
20394;BME280;10356;50.544;9.642;2023-04-27T03:19:00;98514.41;;;4.97;85.76
20394;BME280;10356;50.544;9.642;2023-04-27T03:21:28;98513.81;;;4.92;86.27
20394;BME280;10356;50.544;9.642;2023-04-27T03:23:55;98512.13;;;4.91;86.49
20394;BME280;10356;50.544;9.642;2023-04-27T03:26:22;98504.78;;;4.84;86.50
20394;BME280;10356;50.544;9.642;2023-04-27T03:28:50;98502.50;;;4.78;86.24
20394;BME280;10356;50.544;9.642;2023-04-27T03:31:16;98506.06;;;4.75;86.43
20394;BME280;10356;50.544;9.642;2023-04-27T03:33:42;98504.25;;;4.77;86.30
20394;BME280;10356;50.544;9.642;2023-04-27T03:36:09;98506.91;;;4.76;86.14
20394;BME280;10356;50.544;9.642;2023-04-27T03:38:36;98500.97;;;4.74;86.57
20394;BME280;10356;50.544;9.642;2023-04-27T03:41:04;98504.25;;;4.77;86.08
20394;BME280;10356;50.544;9.642;2023-04-27T03:43:30;98495.81;;;4.74;86.85
20394;BME280;10356;50.544;9.642;2023-04-27T03:45:57;98501.06;;;4.72;87.58
20394;BME280;10356;50.544;9.642;2023-04-27T03:48:23;98497.03;;;4.67;88.48
20394;BME280;10356;50.544;9.642;2023-04-27T03:50:50;98495.69;;;4.60;88.59
20394;BME280;10356;50.544;9.642;2023-04-27T03:53:16;98500.16;;;4.56;88.59
20394;BME280;10356;50.544;9.642;2023-04-27T03:55:43;98496.88;;;4.53;88.69
20394;BME280;10356;50.544;9.642;2023-04-27T03:58:12;98504.63;;;4.53;88.44
20394;BME280;10356;50.544;9.642;2023-04-27T04:00:38;98500.22;;;4.55;88.39
20394;BME280;10356;50.544;9.642;2023-04-27T04:03:05;98493.69;;;4.48;88.52
20394;BME280;10356;50.544;9.642;2023-04-27T04:05:32;98499.75;;;4.47;88.59
20394;BME280;10356;50.544;9.642;2023-04-27T04:07:59;98503.25;;;4.46;88.63
20394;BME280;10356;50.544;9.642;2023-04-27T04:10:25;98506.69;;;4.46;88.82
20394;BME280;10356;50.544;9.642;2023-04-27T04:12:52;98506.44;;;4.51;88.29
20394;BME280;10356;50.544;9.642;2023-04-27T04:15:20;98496.13;;;4.51;87.99
20394;BME280;10356;50.544;9.642;2023-04-27T04:17:47;98502.97;;;4.52;87.97
20394;BME280;10356;50.544;9.642;2023-04-27T04:20:13;98506.28;;;4.54;87.89
20394;BME280;10356;50.544;9.642;2023-04-27T04:22:40;98509.78;;;4.53;87.91
20394;BME280;10356;50.544;9.642;2023-04-27T04:25:07;98504.47;;;4.56;87.96
20394;BME280;10356;50.544;9.642;2023-04-27T04:27:34;98510.00;;;4.65;87.96
20394;BME280;10356;50.544;9.642;2023-04-27T04:30:01;98507.66;;;4.61;87.82
20394;BME280;10356;50.544;9.642;2023-04-27T04:32:31;98509.16;;;4.65;87.61
20394;BME280;10356;50.544;9.642;2023-04-27T04:34:58;98519.50;;;4.65;87.25
20394;BME280;10356;50.544;9.642;2023-04-27T04:37:25;98521.31;;;4.63;87.57
20394;BME280;10356;50.544;9.642;2023-04-27T04:39:52;98523.66;;;4.67;87.42
20394;BME280;10356;50.544;9.642;2023-04-27T04:42:18;98530.44;;;4.70;87.23
20394;BME280;10356;50.544;9.642;2023-04-27T04:44:45;98524.50;;;4.68;88.03
20394;BME280;10356;50.544;9.642;2023-04-27T04:47:12;98527.69;;;4.73;87.69
20394;BME280;10356;50.544;9.642;2023-04-27T04:49:40;98529.28;;;4.75;86.97
20394;BME280;10356;50.544;9.642;2023-04-27T04:52:06;98523.38;;;4.73;87.92
20394;BME280;10356;50.544;9.642;2023-04-27T04:54:32;98526.63;;;4.77;87.95
20394;BME280;10356;50.544;9.642;2023-04-27T04:56:59;98523.06;;;4.79;88.48
20394;BME280;10356;50.544;9.642;2023-04-27T04:59:27;98526.50;;;4.80;87.94
20394;BME280;10356;50.544;9.642;2023-04-27T05:01:54;98515.94;;;4.84;87.41
20394;BME280;10356;50.544;9.642;2023-04-27T05:04:20;98520.03;;;4.88;87.56
20394;BME280;10356;50.544;9.642;2023-04-27T05:06:48;98521.28;;;4.97;87.24
20394;BME280;10356;50.544;9.642;2023-04-27T05:09:14;98521.16;;;5.00;87.62
20394;BME280;10356;50.544;9.642;2023-04-27T05:11:41;98525.41;;;5.01;87.98
20394;BME280;10356;50.544;9.642;2023-04-27T05:14:08;98527.34;;;5.13;87.70
20394;BME280;10356;50.544;9.642;2023-04-27T05:16:34;98529.38;;;5.24;87.08
20394;BME280;10356;50.544;9.642;2023-04-27T05:19:01;98529.81;;;5.32;85.97
20394;BME280;10356;50.544;9.642;2023-04-27T05:21:30;98534.44;;;5.42;85.95
20394;BME280;10356;50.544;9.642;2023-04-27T05:23:57;98529.56;;;5.53;85.20
20394;BME280;10356;50.544;9.642;2023-04-27T05:26:24;98533.13;;;5.51;84.28
20394;BME280;10356;50.544;9.642;2023-04-27T05:28:50;98528.06;;;5.49;84.91
20394;BME280;10356;50.544;9.642;2023-04-27T05:31:17;98530.00;;;5.61;84.28
20394;BME280;10356;50.544;9.642;2023-04-27T05:33:43;98533.56;;;5.74;84.05
20394;BME280;10356;50.544;9.642;2023-04-27T05:36:10;98529.00;;;5.79;83.50
20394;BME280;10356;50.544;9.642;2023-04-27T05:38:37;98534.00;;;5.82;83.44
20394;BME280;10356;50.544;9.642;2023-04-27T05:41:05;98537.78;;;5.92;83.02
20394;BME280;10356;50.544;9.642;2023-04-27T05:43:32;98543.47;;;5.99;81.71
20394;BME280;10356;50.544;9.642;2023-04-27T05:46:02;98542.31;;;6.05;81.07
20394;BME280;10356;50.544;9.642;2023-04-27T05:48:28;98539.38;;;6.11;81.90
20394;BME280;10356;50.544;9.642;2023-04-27T05:50:58;98544.22;;;6.17;80.02
20394;BME280;10356;50.544;9.642;2023-04-27T05:53:25;98548.81;;;6.27;80.67
20394;BME280;10356;50.544;9.642;2023-04-27T05:55:52;98546.53;;;6.37;80.86
20394;BME280;10356;50.544;9.642;2023-04-27T05:58:20;98546.13;;;6.44;80.72
20394;BME280;10356;50.544;9.642;2023-04-27T06:00:47;98542.16;;;6.53;80.97
20394;BME280;10356;50.544;9.642;2023-04-27T06:03:14;98543.16;;;6.66;80.61
20394;BME280;10356;50.544;9.642;2023-04-27T06:05:41;98542.97;;;6.69;79.90
20394;BME280;10356;50.544;9.642;2023-04-27T06:08:07;98540.59;;;6.80;76.21
20394;BME280;10356;50.544;9.642;2023-04-27T06:10:34;98539.25;;;6.89;74.87
20394;BME280;10356;50.544;9.642;2023-04-27T06:13:01;98538.34;;;7.18;72.92
20394;BME280;10356;50.544;9.642;2023-04-27T06:15:28;98547.69;;;7.06;72.58
20394;BME280;10356;50.544;9.642;2023-04-27T06:17:55;98540.84;;;7.05;72.26
20394;BME280;10356;50.544;9.642;2023-04-27T06:20:22;98541.22;;;7.27;72.93
20394;BME280;10356;50.544;9.642;2023-04-27T06:22:48;98542.47;;;7.50;71.73
20394;BME280;10356;50.544;9.642;2023-04-27T06:25:15;98542.81;;;7.72;70.78
20394;BME280;10356;50.544;9.642;2023-04-27T06:27:41;98542.78;;;8.00;70.25
20394;BME280;10356;50.544;9.642;2023-04-27T06:30:08;98540.25;;;8.27;69.49
20394;BME280;10356;50.544;9.642;2023-04-27T06:32:36;98537.56;;;8.28;68.03
20394;BME280;10356;50.544;9.642;2023-04-27T06:35:03;98550.63;;;8.27;67.47
20394;BME280;10356;50.544;9.642;2023-04-27T06:37:30;98550.16;;;8.20;66.01
20394;BME280;10356;50.544;9.642;2023-04-27T06:39:57;98555.34;;;8.20;67.21
20394;BME280;10356;50.544;9.642;2023-04-27T06:42:23;98549.78;;;8.26;66.84
20394;BME280;10356;50.544;9.642;2023-04-27T06:44:52;98556.47;;;8.57;66.50
20394;BME280;10356;50.544;9.642;2023-04-27T06:47:19;98560.94;;;8.55;63.73
20394;BME280;10356;50.544;9.642;2023-04-27T06:49:46;98562.69;;;8.94;63.31
20394;BME280;10356;50.544;9.642;2023-04-27T06:52:13;98563.47;;;9.08;60.92
20394;BME280;10356;50.544;9.642;2023-04-27T06:54:39;98566.47;;;9.27;59.75
20394;BME280;10356;50.544;9.642;2023-04-27T06:57:06;98567.75;;;9.60;58.26
20394;BME280;10356;50.544;9.642;2023-04-27T06:59:33;98560.41;;;9.90;58.06
20394;BME280;10356;50.544;9.642;2023-04-27T07:01:59;98567.63;;;10.11;57.36
20394;BME280;10356;50.544;9.642;2023-04-27T07:04:26;98560.78;;;10.34;57.46
20394;BME280;10356;50.544;9.642;2023-04-27T07:06:54;98558.56;;;10.64;57.59
20394;BME280;10356;50.544;9.642;2023-04-27T07:09:20;98573.84;;;10.69;54.54
20394;BME280;10356;50.544;9.642;2023-04-27T07:11:47;98571.38;;;11.02;53.48
20394;BME280;10356;50.544;9.642;2023-04-27T07:14:13;98566.97;;;10.91;53.57
20394;BME280;10356;50.544;9.642;2023-04-27T07:16:40;98575.09;;;11.11;53.13
20394;BME280;10356;50.544;9.642;2023-04-27T07:19:08;98570.91;;;11.43;53.06
20394;BME280;10356;50.544;9.642;2023-04-27T07:21:34;98573.81;;;11.27;54.90
20394;BME280;10356;50.544;9.642;2023-04-27T07:24:02;98575.19;;;11.09;52.36
20394;BME280;10356;50.544;9.642;2023-04-27T07:26:29;98572.34;;;11.58;53.46
20394;BME280;10356;50.544;9.642;2023-04-27T07:28:57;98566.94;;;11.83;50.25
20394;BME280;10356;50.544;9.642;2023-04-27T07:31:23;98567.41;;;11.88;50.37
20394;BME280;10356;50.544;9.642;2023-04-27T07:33:50;98572.03;;;11.73;50.51
20394;BME280;10356;50.544;9.642;2023-04-27T07:36:17;98568.94;;;11.68;51.45
20394;BME280;10356;50.544;9.642;2023-04-27T07:38:43;98565.72;;;11.98;50.58
20394;BME280;10356;50.544;9.642;2023-04-27T07:41:11;98565.72;;;11.98;48.91
20394;BME280;10356;50.544;9.642;2023-04-27T07:43:38;98560.50;;;11.98;49.16
20394;BME280;10356;50.544;9.642;2023-04-27T07:46:06;98567.53;;;11.98;47.28
20394;BME280;10356;50.544;9.642;2023-04-27T07:48:33;98565.47;;;12.23;46.88
20394;BME280;10356;50.544;9.642;2023-04-27T07:51:00;98571.53;;;12.66;48.12
20394;BME280;10356;50.544;9.642;2023-04-27T07:53:27;98558.53;;;12.44;47.99
20394;BME280;10356;50.544;9.642;2023-04-27T07:55:53;98558.44;;;12.35;46.06
20394;BME280;10356;50.544;9.642;2023-04-27T07:58:21;98561.56;;;12.18;47.35
20394;BME280;10356;50.544;9.642;2023-04-27T08:00:47;98562.59;;;12.37;46.01
20394;BME280;10356;50.544;9.642;2023-04-27T08:03:14;98555.56;;;12.81;45.42
20394;BME280;10356;50.544;9.642;2023-04-27T08:05:40;98550.91;;;13.16;45.51
20394;BME280;10356;50.544;9.642;2023-04-27T08:08:07;98557.88;;;13.06;43.80
20394;BME280;10356;50.544;9.642;2023-04-27T08:10:33;98553.41;;;12.86;43.78
20394;BME280;10356;50.544;9.642;2023-04-27T08:13:02;98554.19;;;12.65;42.70
20394;BME280;10356;50.544;9.642;2023-04-27T08:15:30;98556.94;;;12.96;44.78
20394;BME280;10356;50.544;9.642;2023-04-27T08:17:57;98557.16;;;13.04;42.56
20394;BME280;10356;50.544;9.642;2023-04-27T08:20:23;98546.53;;;13.16;40.79
20394;BME280;10356;50.544;9.642;2023-04-27T08:22:50;98550.72;;;13.08;41.09
20394;BME280;10356;50.544;9.642;2023-04-27T08:25:16;98547.84;;;13.52;43.67
20394;BME280;10356;50.544;9.642;2023-04-27T08:27:43;98553.06;;;13.52;41.02
20394;BME280;10356;50.544;9.642;2023-04-27T08:30:10;98544.13;;;13.55;39.07
20394;BME280;10356;50.544;9.642;2023-04-27T08:32:38;98552.31;;;13.20;38.84
20394;BME280;10356;50.544;9.642;2023-04-27T08:35:05;98545.22;;;13.31;39.74
20394;BME280;10356;50.544;9.642;2023-04-27T08:37:32;98546.28;;;13.70;43.33
20394;BME280;10356;50.544;9.642;2023-04-27T08:39:58;98543.00;;;14.17;39.44
20394;BME280;10356;50.544;9.642;2023-04-27T08:42:25;98534.59;;;14.23;39.16
20394;BME280;10356;50.544;9.642;2023-04-27T08:44:51;98532.22;;;14.70;37.59
20394;BME280;10356;50.544;9.642;2023-04-27T08:47:18;98527.38;;;15.03;37.85
20394;BME280;10356;50.544;9.642;2023-04-27T08:49:46;98535.78;;;14.59;37.96
20394;BME280;10356;50.544;9.642;2023-04-27T08:52:13;98528.63;;;14.71;38.16
20394;BME280;10356;50.544;9.642;2023-04-27T08:54:40;98530.53;;;14.50;38.33
20394;BME280;10356;50.544;9.642;2023-04-27T08:57:09;98530.94;;;14.45;37.06
20394;BME280;10356;50.544;9.642;2023-04-27T08:59:36;98530.28;;;14.91;37.14
20394;BME280;10356;50.544;9.642;2023-04-27T09:02:02;98530.81;;;15.13;37.98
20394;BME280;10356;50.544;9.642;2023-04-27T09:04:35;98523.19;;;15.49;37.42
20394;BME280;10356;50.544;9.642;2023-04-27T09:07:10;98529.16;;;15.03;37.29
20394;BME280;10356;50.544;9.642;2023-04-27T09:09:37;98528.00;;;15.90;38.89
20394;BME280;10356;50.544;9.642;2023-04-27T09:12:13;98522.09;;;15.78;37.59
20394;BME280;10356;50.544;9.642;2023-04-27T09:14:39;98524.28;;;15.37;35.27
20394;BME280;10356;50.544;9.642;2023-04-27T09:17:06;98521.78;;;15.54;39.44
20394;BME280;10356;50.544;9.642;2023-04-27T09:19:33;98518.06;;;15.38;36.70
20394;BME280;10356;50.544;9.642;2023-04-27T09:22:04;98511.22;;;15.08;35.94
20394;BME280;10356;50.544;9.642;2023-04-27T09:24:32;98519.22;;;15.06;36.48
20394;BME280;10356;50.544;9.642;2023-04-27T09:26:59;98522.97;;;14.75;37.50
20394;BME280;10356;50.544;9.642;2023-04-27T09:29:36;98515.34;;;15.20;37.39
20394;BME280;10356;50.544;9.642;2023-04-27T09:32:13;98517.25;;;15.47;36.30
20394;BME280;10356;50.544;9.642;2023-04-27T09:34:40;98506.13;;;16.17;37.27
20394;BME280;10356;50.544;9.642;2023-04-27T09:37:08;98510.69;;;16.42;35.93
20394;BME280;10356;50.544;9.642;2023-04-27T09:39:37;98513.06;;;15.90;36.11
20394;BME280;10356;50.544;9.642;2023-04-27T09:42:03;98505.88;;;16.37;34.73
20394;BME280;10356;50.544;9.642;2023-04-27T09:44:30;98500.06;;;16.61;35.79
20394;BME280;10356;50.544;9.642;2023-04-27T09:46:58;98501.56;;;16.19;34.76
20394;BME280;10356;50.544;9.642;2023-04-27T09:49:25;98503.00;;;16.58;36.45
20394;BME280;10356;50.544;9.642;2023-04-27T09:51:54;98504.81;;;16.93;33.88
20394;BME280;10356;50.544;9.642;2023-04-27T09:54:23;98497.34;;;16.88;36.49
20394;BME280;10356;50.544;9.642;2023-04-27T09:56:59;98490.13;;;16.72;34.20
20394;BME280;10356;50.544;9.642;2023-04-27T09:59:39;98489.38;;;17.23;33.57
20394;BME280;10356;50.544;9.642;2023-04-27T10:02:10;98488.41;;;17.24;32.45
20394;BME280;10356;50.544;9.642;2023-04-27T10:05:08;98491.53;;;16.05;34.27
20394;BME280;10356;50.544;9.642;2023-04-27T10:07:38;98495.91;;;16.94;35.79
20394;BME280;10356;50.544;9.642;2023-04-27T10:10:14;98492.16;;;17.22;34.77
20394;BME280;10356;50.544;9.642;2023-04-27T10:12:42;98486.91;;;16.78;35.30
20394;BME280;10356;50.544;9.642;2023-04-27T10:15:13;98494.09;;;16.94;35.67
20394;BME280;10356;50.544;9.642;2023-04-27T10:17:47;98486.28;;;17.53;34.27
20394;BME280;10356;50.544;9.642;2023-04-27T10:20:14;98491.47;;;17.45;33.19
20394;BME280;10356;50.544;9.642;2023-04-27T10:22:42;98483.03;;;17.59;33.41
20394;BME280;10356;50.544;9.642;2023-04-27T10:25:15;98480.75;;;17.65;34.25
20394;BME280;10356;50.544;9.642;2023-04-27T10:27:47;98487.13;;;17.88;33.05
20394;BME280;10356;50.544;9.642;2023-04-27T10:30:16;98478.50;;;18.19;34.21
20394;BME280;10356;50.544;9.642;2023-04-27T10:32:50;98477.16;;;18.07;33.95
20394;BME280;10356;50.544;9.642;2023-04-27T10:35:19;98473.31;;;17.09;33.24
20394;BME280;10356;50.544;9.642;2023-04-27T10:37:46;98472.50;;;17.34;33.72
20394;BME280;10356;50.544;9.642;2023-04-27T10:40:14;98466.59;;;17.40;34.05
20394;BME280;10356;50.544;9.642;2023-04-27T10:42:43;98471.66;;;17.33;32.97
20394;BME280;10356;50.544;9.642;2023-04-27T10:45:10;98466.72;;;17.56;33.34
20394;BME280;10356;50.544;9.642;2023-04-27T10:47:39;98467.81;;;17.79;32.82
20394;BME280;10356;50.544;9.642;2023-04-27T10:50:07;98472.06;;;17.46;34.56
20394;BME280;10356;50.544;9.642;2023-04-27T10:52:35;98472.78;;;17.05;33.66
20394;BME280;10356;50.544;9.642;2023-04-27T10:55:15;98472.97;;;16.86;34.00
20394;BME280;10356;50.544;9.642;2023-04-27T10:57:48;98469.72;;;16.39;35.96
20394;BME280;10356;50.544;9.642;2023-04-27T11:00:20;98468.41;;;17.39;36.34
20394;BME280;10356;50.544;9.642;2023-04-27T11:02:48;98467.63;;;17.73;35.16
20394;BME280;10356;50.544;9.642;2023-04-27T11:05:16;98461.19;;;18.17;32.89
20394;BME280;10356;50.544;9.642;2023-04-27T11:07:43;98463.88;;;17.83;35.58
20394;BME280;10356;50.544;9.642;2023-04-27T11:10:14;98464.34;;;17.45;33.03
20394;BME280;10356;50.544;9.642;2023-04-27T11:12:41;98456.56;;;17.43;33.59
20394;BME280;10356;50.544;9.642;2023-04-27T11:15:09;98449.31;;;18.13;35.78
20394;BME280;10356;50.544;9.642;2023-04-27T11:17:37;98457.50;;;18.02;34.39
20394;BME280;10356;50.544;9.642;2023-04-27T11:20:04;98454.69;;;18.45;32.52
20394;BME280;10356;50.544;9.642;2023-04-27T11:22:33;98448.69;;;18.35;31.46
20394;BME280;10356;50.544;9.642;2023-04-27T11:25:00;98443.47;;;18.59;32.05
20394;BME280;10356;50.544;9.642;2023-04-27T11:27:35;98446.13;;;18.67;31.36
20394;BME280;10356;50.544;9.642;2023-04-27T11:30:03;98443.16;;;18.70;31.30
20394;BME280;10356;50.544;9.642;2023-04-27T11:32:31;98444.47;;;18.66;32.91
20394;BME280;10356;50.544;9.642;2023-04-27T11:34:57;98442.66;;;18.67;31.97
20394;BME280;10356;50.544;9.642;2023-04-27T11:37:25;98443.44;;;19.07;33.24
20394;BME280;10356;50.544;9.642;2023-04-27T11:39:52;98434.69;;;19.15;32.22
20394;BME280;10356;50.544;9.642;2023-04-27T11:42:21;98431.25;;;19.14;32.52
20394;BME280;10356;50.544;9.642;2023-04-27T11:44:52;98438.47;;;18.32;33.41
20394;BME280;10356;50.544;9.642;2023-04-27T11:47:19;98426.22;;;18.15;33.03
20394;BME280;10356;50.544;9.642;2023-04-27T11:49:48;98435.06;;;17.98;35.10
20394;BME280;10356;50.544;9.642;2023-04-27T11:52:15;98431.41;;;17.83;34.16
20394;BME280;10356;50.544;9.642;2023-04-27T11:54:46;98426.06;;;18.24;31.29
20394;BME280;10356;50.544;9.642;2023-04-27T11:57:13;98420.97;;;18.23;33.40
20394;BME280;10356;50.544;9.642;2023-04-27T11:59:40;98413.13;;;18.79;31.90
20394;BME280;10356;50.544;9.642;2023-04-27T12:02:07;98417.44;;;18.64;33.83
20394;BME280;10356;50.544;9.642;2023-04-27T12:04:34;98414.72;;;18.24;33.74
20394;BME280;10356;50.544;9.642;2023-04-27T12:07:01;98412.94;;;18.65;34.07
20394;BME280;10356;50.544;9.642;2023-04-27T12:09:29;98410.44;;;19.11;32.03
20394;BME280;10356;50.544;9.642;2023-04-27T12:11:55;98408.47;;;19.68;31.62
20394;BME280;10356;50.544;9.642;2023-04-27T12:14:22;98409.31;;;18.98;33.93
20394;BME280;10356;50.544;9.642;2023-04-27T12:16:49;98406.34;;;19.56;31.25
20394;BME280;10356;50.544;9.642;2023-04-27T12:19:15;98407.63;;;18.97;30.58
20394;BME280;10356;50.544;9.642;2023-04-27T12:21:42;98410.41;;;18.15;34.50
20394;BME280;10356;50.544;9.642;2023-04-27T12:24:10;98400.09;;;18.70;32.22
20394;BME280;10356;50.544;9.642;2023-04-27T12:26:37;98391.84;;;18.57;33.50
20394;BME280;10356;50.544;9.642;2023-04-27T12:29:03;98396.53;;;19.34;32.30
20394;BME280;10356;50.544;9.642;2023-04-27T12:31:30;98403.63;;;19.17;31.35
20394;BME280;10356;50.544;9.642;2023-04-27T12:33:56;98406.31;;;18.93;32.08
20394;BME280;10356;50.544;9.642;2023-04-27T12:36:23;98405.03;;;18.65;31.54
20394;BME280;10356;50.544;9.642;2023-04-27T12:38:51;98412.41;;;18.29;32.67
20394;BME280;10356;50.544;9.642;2023-04-27T12:41:19;98405.53;;;18.52;34.37
20394;BME280;10356;50.544;9.642;2023-04-27T12:43:47;98401.06;;;18.69;31.98
20394;BME280;10356;50.544;9.642;2023-04-27T12:46:13;98406.81;;;18.16;32.27
20394;BME280;10356;50.544;9.642;2023-04-27T12:48:40;98403.41;;;17.90;33.46
20394;BME280;10356;50.544;9.642;2023-04-27T12:51:07;98393.81;;;17.73;32.90
20394;BME280;10356;50.544;9.642;2023-04-27T12:53:33;98399.19;;;18.05;34.73
20394;BME280;10356;50.544;9.642;2023-04-27T12:56:01;98404.31;;;18.30;33.75
20394;BME280;10356;50.544;9.642;2023-04-27T12:58:30;98395.47;;;17.74;33.92
20394;BME280;10356;50.544;9.642;2023-04-27T13:00:56;98388.34;;;18.32;33.14
20394;BME280;10356;50.544;9.642;2023-04-27T13:03:23;98395.22;;;18.09;34.21
20394;BME280;10356;50.544;9.642;2023-04-27T13:05:49;98391.16;;;17.65;32.91